createdAt,value
2023-05-19T00:00:48.200Z,3.70
2023-05-19T00:03:17.865Z,3.90
2023-05-19T00:05:46.282Z,4.32
2023-05-19T00:08:16.585Z,4.22
2023-05-19T00:10:43.642Z,3.72
2023-05-19T00:13:10.303Z,4.00
2023-05-19T00:15:37.110Z,4.55
2023-05-19T00:18:03.766Z,4.20
2023-05-19T00:20:30.485Z,4.15
2023-05-19T00:22:57.208Z,4.15
2023-05-19T00:25:23.861Z,4.13
2023-05-19T00:27:50.695Z,3.70
2023-05-19T00:30:17.240Z,4.47
2023-05-19T00:32:43.833Z,4.40
2023-05-19T00:35:10.496Z,3.47
2023-05-19T00:37:36.948Z,3.58
2023-05-19T00:40:05.735Z,3.85
2023-05-19T00:42:32.871Z,3.40
2023-05-19T00:44:59.994Z,3.90
2023-05-19T00:47:26.542Z,3.40
2023-05-19T00:49:53.066Z,2.65
2023-05-19T00:52:19.732Z,3.22
2023-05-19T00:54:46.482Z,3.28
2023-05-19T00:57:14.545Z,3.83
2023-05-19T00:59:41.147Z,3.45
2023-05-19T01:02:07.967Z,3.08
2023-05-19T01:04:36.410Z,2.83
2023-05-19T01:07:03.094Z,3.08
2023-05-19T01:09:30.713Z,3.30
2023-05-19T01:11:57.311Z,3.08
2023-05-19T01:14:23.879Z,2.95
2023-05-19T01:16:50.551Z,3.30
2023-05-19T01:19:21.247Z,2.50
2023-05-19T01:22:13.116Z,3.40
2023-05-19T01:24:58.193Z,3.05
2023-05-19T01:27:25.110Z,3.47
2023-05-19T01:30:10.760Z,3.00
2023-05-19T01:32:38.521Z,3.80
2023-05-19T01:35:05.683Z,2.67
2023-05-19T01:37:32.448Z,2.13
2023-05-19T01:39:59.123Z,3.20
2023-05-19T01:42:26.578Z,2.95
2023-05-19T01:44:54.078Z,3.25
2023-05-19T01:47:20.719Z,3.00
2023-05-19T01:49:47.242Z,3.20
2023-05-19T01:52:13.759Z,3.40
2023-05-19T01:54:40.281Z,3.20
2023-05-19T01:57:25.441Z,2.88
2023-05-19T01:59:54.943Z,3.05
2023-05-19T02:02:27.123Z,3.38
2023-05-19T02:04:59.999Z,2.88
2023-05-19T02:07:28.413Z,3.25
2023-05-19T02:10:05.813Z,3.20
2023-05-19T02:12:34.303Z,3.60
2023-05-19T02:15:06.112Z,2.83
2023-05-19T02:17:36.298Z,3.42
2023-05-19T02:20:06.869Z,3.20
2023-05-19T02:22:33.470Z,3.60
2023-05-19T02:25:00.295Z,3.28
2023-05-19T02:27:27.110Z,3.67
2023-05-19T02:29:53.675Z,3.10
2023-05-19T02:32:20.679Z,3.30
2023-05-19T02:34:47.197Z,3.38
2023-05-19T02:37:14.630Z,3.72
2023-05-19T02:39:41.696Z,3.20
2023-05-19T02:42:08.232Z,3.22
2023-05-19T02:44:34.705Z,3.35
2023-05-19T02:47:01.782Z,3.67
2023-05-19T02:49:31.007Z,3.35
2023-05-19T02:51:57.694Z,3.35
2023-05-19T02:54:24.269Z,3.50
2023-05-19T02:56:50.827Z,3.35
2023-05-19T02:59:17.312Z,3.53
2023-05-19T03:01:43.835Z,3.10
2023-05-19T03:04:10.590Z,3.20
2023-05-19T03:06:37.764Z,3.67
2023-05-19T03:09:04.361Z,3.70
2023-05-19T03:11:31.030Z,3.25
2023-05-19T03:13:57.687Z,3.42
2023-05-19T03:16:24.758Z,3.65
2023-05-19T03:18:51.410Z,4.20
2023-05-19T03:21:17.951Z,3.28
2023-05-19T03:23:44.530Z,4.07
2023-05-19T03:26:11.252Z,3.67
2023-05-19T03:28:37.897Z,3.53
2023-05-19T03:31:04.501Z,3.33
2023-05-19T03:33:31.118Z,3.78
2023-05-19T03:35:57.899Z,3.67
2023-05-19T03:38:24.795Z,3.50
2023-05-19T03:40:51.324Z,3.92
2023-05-19T03:43:17.830Z,4.07
2023-05-19T03:45:44.474Z,4.30
2023-05-19T03:48:11.125Z,3.85
2023-05-19T03:50:38.212Z,3.55
2023-05-19T03:53:04.832Z,3.65
2023-05-19T03:55:31.410Z,4.40
2023-05-19T03:57:58.051Z,4.05
2023-05-19T04:00:24.949Z,4.05
2023-05-19T04:02:51.937Z,4.38
2023-05-19T04:05:18.634Z,3.45
2023-05-19T04:07:46.725Z,3.78
2023-05-19T04:10:13.637Z,4.13
2023-05-19T04:12:41.359Z,3.92
2023-05-19T04:15:08.245Z,4.13
2023-05-19T04:17:35.016Z,3.45
2023-05-19T04:20:01.695Z,4.78
2023-05-19T04:22:28.256Z,3.80
2023-05-19T04:24:55.142Z,3.95
2023-05-19T04:27:22.300Z,4.55
2023-05-19T04:29:49.722Z,4.13
2023-05-19T04:32:18.089Z,3.70
2023-05-19T04:34:47.671Z,4.13
2023-05-19T04:37:14.424Z,4.05
2023-05-19T04:39:45.397Z,3.55
2023-05-19T04:42:12.126Z,4.50
2023-05-19T04:44:40.328Z,3.67
2023-05-19T04:49:33.698Z,4.55
2023-05-19T04:52:00.507Z,4.72
2023-05-19T04:54:27.054Z,5.00
2023-05-19T04:56:53.678Z,4.05
2023-05-19T04:59:22.218Z,4.32
2023-05-19T05:01:48.796Z,4.60
2023-05-19T05:04:15.410Z,4.45
2023-05-19T05:06:47.826Z,4.55
2023-05-19T05:09:15.475Z,4.30
2023-05-19T05:11:42.337Z,4.78
2023-05-19T05:14:09.059Z,4.85
2023-05-19T05:16:36.006Z,5.72
2023-05-19T05:19:03.089Z,4.90
2023-05-19T05:21:29.859Z,4.88
2023-05-19T05:23:56.567Z,4.45
2023-05-19T05:26:26.563Z,4.28
2023-05-19T05:28:53.109Z,5.22
2023-05-19T05:31:19.722Z,5.85
2023-05-19T05:33:46.433Z,4.38
2023-05-19T05:36:13.798Z,4.28
2023-05-19T05:38:40.378Z,4.60
2023-05-19T05:41:06.964Z,5.25
2023-05-19T05:43:33.602Z,4.82
2023-05-19T05:46:00.333Z,4.88
2023-05-19T05:48:27.050Z,4.30
2023-05-19T05:50:54.618Z,4.90
2023-05-19T05:53:21.630Z,4.72
2023-05-19T05:55:48.464Z,4.60
2023-05-19T05:58:15.886Z,5.35
2023-05-19T06:00:48.591Z,5.20
2023-05-19T06:03:16.953Z,5.30
2023-05-19T06:05:43.743Z,5.55
2023-05-19T06:08:10.438Z,5.40
2023-05-19T06:10:39.093Z,5.95
2023-05-19T06:13:05.832Z,5.25
2023-05-19T06:15:32.458Z,5.05
2023-05-19T06:17:59.506Z,5.95
2023-05-19T06:20:26.390Z,5.60
2023-05-19T06:22:52.889Z,5.22
2023-05-19T06:25:20.618Z,6.05
2023-05-19T06:27:47.157Z,5.47
2023-05-19T06:30:13.883Z,5.68
2023-05-19T06:32:40.671Z,5.18
2023-05-19T06:35:07.458Z,6.28
2023-05-19T06:37:33.990Z,6.25
2023-05-19T06:40:00.529Z,5.53
2023-05-19T06:42:27.096Z,6.00
2023-05-19T06:44:53.700Z,5.05
2023-05-19T06:47:20.290Z,5.63
2023-05-19T06:49:46.840Z,5.50
2023-05-19T06:52:13.415Z,5.53
2023-05-19T06:54:39.994Z,5.30
2023-05-19T06:57:06.567Z,5.95
2023-05-19T06:59:33.166Z,5.95
2023-05-19T07:01:59.746Z,5.75
2023-05-19T07:04:27.437Z,5.13
2023-05-19T07:06:55.214Z,5.68
2023-05-19T07:09:22.076Z,6.63
2023-05-19T07:11:48.659Z,6.15
2023-05-19T07:14:15.185Z,6.30
2023-05-19T07:16:41.978Z,5.80
2023-05-19T07:19:09.103Z,5.68
2023-05-19T07:21:35.915Z,6.40
2023-05-19T07:24:02.449Z,5.70
2023-05-19T07:26:29.414Z,6.18
2023-05-19T07:28:56.192Z,6.38
2023-05-19T07:31:22.783Z,6.03
2023-05-19T07:33:49.566Z,6.68
2023-05-19T07:36:16.541Z,5.22
2023-05-19T07:38:43.122Z,6.75
2023-05-19T07:41:09.697Z,6.80
2023-05-19T07:43:36.320Z,6.43
2023-05-19T07:46:03.007Z,6.07
2023-05-19T07:48:29.779Z,6.85
2023-05-19T07:50:56.461Z,6.70
2023-05-19T07:53:23.194Z,6.78
2023-05-19T07:55:49.757Z,7.00
2023-05-19T07:58:16.362Z,6.97
2023-05-19T08:00:43.283Z,6.22
2023-05-19T08:03:10.316Z,6.70
2023-05-19T08:05:37.037Z,7.05
2023-05-19T08:08:03.990Z,6.95
2023-05-19T08:10:30.526Z,6.13
2023-05-19T08:12:57.175Z,7.75
2023-05-19T08:15:23.833Z,7.30
2023-05-19T08:17:50.428Z,7.78
2023-05-19T08:20:16.996Z,8.02
2023-05-19T08:22:43.570Z,8.23
2023-05-19T08:25:10.457Z,8.15
2023-05-19T08:27:37.004Z,8.02
2023-05-19T08:30:03.687Z,13.10
2023-05-19T08:32:30.270Z,8.80
2023-05-19T08:34:56.830Z,10.82
2023-05-19T08:37:23.437Z,12.93
2023-05-19T08:39:49.945Z,11.25
2023-05-19T08:42:16.558Z,11.00
2023-05-19T08:44:44.141Z,8.65
2023-05-19T08:47:13.915Z,9.23
2023-05-19T08:49:44.660Z,8.23
2023-05-19T08:52:23.384Z,8.52
2023-05-19T08:57:17.603Z,8.65
2023-05-19T08:59:44.388Z,8.75
2023-05-19T09:02:11.677Z,8.80
2023-05-19T09:04:38.955Z,8.73
2023-05-19T09:07:06.022Z,9.23
2023-05-19T09:09:32.762Z,8.60
2023-05-19T09:11:59.287Z,8.57
2023-05-19T09:14:26.025Z,7.88
2023-05-19T09:16:53.132Z,8.90
2023-05-19T09:19:20.947Z,8.40
2023-05-19T09:21:57.958Z,8.68
2023-05-19T09:24:25.661Z,9.82
2023-05-19T09:26:55.220Z,9.10
2023-05-19T09:29:22.623Z,8.38
2023-05-19T09:31:52.673Z,9.25
2023-05-19T09:34:19.638Z,9.27
2023-05-19T09:36:53.566Z,9.88
2023-05-19T09:39:21.872Z,8.55
2023-05-19T09:44:24.196Z,8.45
2023-05-19T09:46:51.301Z,8.90
2023-05-19T09:49:31.501Z,8.70
2023-05-19T09:51:59.239Z,8.93
2023-05-19T09:54:27.515Z,7.80
2023-05-19T09:57:01.051Z,8.27
2023-05-19T09:59:32.292Z,7.18
2023-05-19T10:02:00.827Z,8.27
2023-05-19T10:04:28.141Z,8.93
2023-05-19T10:06:56.218Z,8.20
2023-05-19T10:11:51.618Z,8.18
2023-05-19T10:14:18.342Z,8.10
2023-05-19T10:16:45.797Z,9.05
2023-05-19T10:19:13.043Z,9.52
2023-05-19T10:21:39.612Z,8.80
2023-05-19T10:24:06.899Z,8.48
2023-05-19T10:26:35.021Z,8.68
2023-05-19T10:31:28.149Z,8.40
2023-05-19T10:34:00.836Z,9.32
2023-05-19T10:36:39.398Z,8.13
2023-05-19T10:39:17.387Z,7.85
2023-05-19T10:41:50.074Z,8.95
2023-05-19T10:44:23.393Z,8.60
2023-05-19T10:46:50.667Z,8.43
2023-05-19T10:49:23.720Z,8.00
2023-05-19T10:51:51.855Z,7.15
2023-05-19T10:54:39.192Z,8.45
2023-05-19T10:57:07.102Z,8.40
2023-05-19T10:59:35.154Z,7.65
2023-05-19T11:04:39.830Z,8.20
2023-05-19T11:07:08.952Z,8.25
2023-05-19T11:09:40.821Z,8.00
2023-05-19T11:12:08.258Z,8.95
2023-05-19T11:14:34.926Z,8.10
2023-05-19T11:17:01.639Z,8.18
2023-05-19T11:19:30.435Z,8.15
2023-05-19T11:21:57.684Z,8.15
2023-05-19T11:24:42.800Z,7.07
2023-05-19T11:27:24.458Z,7.57
2023-05-19T11:29:54.180Z,8.27
2023-05-19T11:32:21.647Z,8.48
2023-05-19T11:34:51.512Z,7.95
2023-05-19T11:37:18.107Z,8.63
2023-05-19T11:39:46.159Z,7.80
2023-05-19T11:44:41.121Z,8.50
2023-05-19T11:47:08.444Z,7.95
2023-05-19T11:49:35.134Z,9.20
2023-05-19T11:52:04.612Z,7.70
2023-05-19T11:54:32.308Z,8.65
2023-05-19T11:57:03.307Z,8.73
2023-05-19T11:59:35.656Z,8.73
2023-05-19T12:02:04.253Z,7.70
2023-05-19T12:04:31.439Z,7.95
2023-05-19T12:06:58.010Z,8.67
2023-05-19T12:09:24.854Z,7.75
2023-05-19T12:11:52.401Z,8.65
2023-05-19T12:14:19.138Z,6.97
2023-05-19T12:16:45.830Z,6.05
2023-05-19T12:19:12.620Z,6.75
2023-05-19T12:21:39.327Z,6.72
2023-05-19T12:24:06.697Z,7.10
2023-05-19T12:26:33.384Z,5.87
2023-05-19T12:28:59.877Z,7.15
2023-05-19T12:31:26.598Z,6.18
2023-05-19T12:33:53.265Z,6.95
2023-05-19T12:36:20.290Z,7.38
2023-05-19T12:38:47.848Z,6.78
2023-05-19T12:41:14.797Z,8.43
2023-05-19T12:43:41.318Z,7.70
2023-05-19T12:46:16.203Z,8.00
2023-05-19T12:48:44.199Z,8.20
2023-05-19T12:51:11.161Z,9.23
2023-05-19T12:53:38.154Z,8.57
2023-05-19T12:56:14.737Z,9.02
2023-05-19T12:58:45.976Z,8.70
2023-05-19T13:01:16.553Z,8.80
2023-05-19T13:03:43.426Z,7.88
2023-05-19T13:06:10.654Z,9.13
2023-05-19T13:08:37.930Z,8.73
2023-05-19T13:11:04.501Z,6.43
2023-05-19T13:13:31.082Z,7.85
2023-05-19T13:15:57.570Z,8.40
2023-05-19T13:18:24.535Z,9.60
2023-05-19T13:20:52.950Z,7.72
2023-05-19T13:23:19.503Z,8.57
2023-05-19T13:25:46.085Z,9.60
2023-05-19T13:28:12.851Z,8.57
2023-05-19T13:30:40.524Z,8.15
2023-05-19T13:33:07.438Z,7.85
2023-05-19T13:35:37.448Z,8.30
2023-05-19T13:38:05.622Z,8.18
2023-05-19T13:40:34.781Z,7.85
2023-05-19T13:43:02.184Z,8.45
2023-05-19T13:45:29.124Z,8.18
2023-05-19T13:47:56.019Z,8.93
2023-05-19T13:50:22.594Z,9.15
2023-05-19T13:52:49.181Z,8.95
2023-05-19T13:55:16.330Z,9.27
2023-05-19T13:57:44.148Z,9.98
2023-05-19T14:00:11.051Z,9.50
2023-05-19T14:05:07.101Z,10.48
2023-05-19T14:07:35.080Z,10.13
2023-05-19T14:10:06.469Z,10.20
2023-05-19T14:12:44.931Z,9.98
2023-05-19T14:15:14.014Z,9.15
2023-05-19T14:17:40.727Z,9.05
2023-05-19T14:20:07.650Z,17.33
2023-05-19T14:22:34.177Z,10.38
2023-05-19T14:25:02.209Z,9.20
2023-05-19T14:27:28.738Z,9.38
2023-05-19T14:29:55.364Z,8.55
2023-05-19T14:32:22.260Z,10.13
2023-05-19T14:34:52.786Z,9.52
2023-05-19T14:37:20.232Z,9.65
2023-05-19T14:39:46.826Z,9.85
2023-05-19T14:42:13.367Z,10.25
2023-05-19T14:44:39.863Z,9.07
2023-05-19T14:47:07.485Z,9.38
2023-05-19T14:49:34.353Z,8.65
2023-05-19T14:52:01.033Z,10.80
2023-05-19T14:54:27.613Z,9.00
2023-05-19T14:56:54.165Z,9.57
2023-05-19T14:59:21.697Z,10.50
2023-05-19T15:01:48.340Z,9.35
2023-05-19T15:04:15.192Z,10.05
2023-05-19T15:06:41.766Z,9.23
2023-05-19T15:09:08.361Z,9.02
2023-05-19T15:11:34.967Z,10.13
2023-05-19T15:14:01.458Z,8.30
2023-05-19T15:16:28.035Z,9.98
2023-05-19T15:18:55.255Z,10.27
2023-05-19T15:21:21.812Z,8.73
2023-05-19T15:23:48.495Z,9.68
2023-05-19T15:26:15.026Z,9.60
2023-05-19T15:28:41.673Z,9.88
2023-05-19T15:31:08.251Z,9.52
2023-05-19T15:33:34.829Z,10.25
2023-05-19T15:36:01.376Z,9.98
2023-05-19T15:38:29.865Z,9.70
2023-05-19T15:40:56.773Z,10.32
2023-05-19T15:43:23.374Z,10.88
2023-05-19T15:45:52.294Z,10.43
2023-05-19T15:48:19.207Z,10.45
2023-05-19T15:50:45.905Z,10.10
2023-05-19T15:53:12.512Z,10.68
2023-05-19T15:55:39.016Z,11.90
2023-05-19T15:58:05.629Z,11.88
2023-05-19T16:00:32.496Z,12.73
2023-05-19T16:02:59.287Z,11.05
2023-05-19T16:05:25.997Z,9.98
2023-05-19T16:07:52.491Z,9.60
2023-05-19T16:10:19.004Z,10.65
2023-05-19T16:12:45.502Z,10.52
2023-05-19T16:15:12.033Z,10.27
2023-05-19T16:17:38.949Z,9.52
2023-05-19T16:20:06.162Z,9.48
2023-05-19T16:22:32.752Z,8.80
2023-05-19T16:24:59.244Z,9.32
2023-05-19T16:27:25.775Z,8.80
2023-05-19T16:29:52.272Z,9.50
2023-05-19T16:32:18.869Z,10.00
2023-05-19T16:34:45.474Z,10.23
2023-05-19T16:37:12.124Z,9.70
2023-05-19T16:39:40.224Z,10.68
2023-05-19T16:44:33.334Z,10.48
2023-05-19T16:46:59.949Z,10.73
2023-05-19T16:49:26.510Z,11.25
2023-05-19T16:51:54.233Z,11.20
2023-05-19T16:54:21.363Z,10.90
2023-05-19T16:56:48.039Z,10.38
2023-05-19T16:59:14.595Z,10.65
2023-05-19T17:01:41.417Z,12.10
2023-05-19T17:04:08.299Z,11.07
2023-05-19T17:06:34.924Z,11.68
2023-05-19T17:09:02.311Z,10.60
2023-05-19T17:11:28.885Z,10.57
2023-05-19T17:13:55.402Z,12.27
2023-05-19T17:16:22.051Z,11.13
2023-05-19T17:18:48.629Z,11.63
2023-05-19T17:21:15.456Z,11.65
2023-05-19T17:23:42.051Z,11.07
2023-05-19T17:26:08.914Z,10.55
2023-05-19T17:28:35.756Z,11.55
2023-05-19T17:31:09.049Z,12.02
2023-05-19T17:33:35.660Z,10.57
2023-05-19T17:36:02.972Z,11.20
2023-05-19T17:38:29.809Z,11.57
2023-05-19T17:40:59.733Z,11.30
2023-05-19T17:43:26.662Z,11.52
2023-05-19T17:45:53.683Z,10.40
2023-05-19T17:48:20.748Z,10.93
2023-05-19T17:50:48.103Z,11.57
2023-05-19T17:53:17.683Z,11.03
2023-05-19T17:55:47.769Z,11.63
2023-05-19T17:58:14.515Z,11.65
2023-05-19T18:00:41.217Z,11.75
2023-05-19T18:03:08.160Z,11.02
2023-05-19T18:05:35.095Z,12.18
2023-05-19T18:08:07.016Z,12.07
2023-05-19T18:10:36.121Z,13.98
2023-05-19T18:13:02.666Z,14.05
2023-05-19T18:15:29.194Z,13.57
2023-05-19T18:17:55.859Z,12.73
2023-05-19T18:20:22.481Z,12.32
2023-05-19T18:22:50.255Z,13.75
2023-05-19T18:25:20.880Z,14.75
2023-05-19T18:27:47.597Z,15.55
2023-05-19T18:30:14.245Z,13.77
2023-05-19T18:32:40.897Z,13.23
2023-05-19T18:35:07.996Z,12.68
2023-05-19T18:37:34.546Z,11.93
2023-05-19T18:40:01.335Z,13.30
2023-05-19T18:42:27.903Z,12.75
2023-05-19T18:44:54.410Z,13.38
2023-05-19T18:47:22.781Z,11.65
2023-05-19T18:49:49.383Z,13.15
2023-05-19T18:52:15.979Z,13.35
2023-05-19T18:54:42.506Z,13.57
2023-05-19T18:57:09.085Z,12.27
2023-05-19T18:59:35.847Z,12.60
2023-05-19T19:02:03.205Z,12.57
2023-05-19T19:04:29.818Z,15.90
2023-05-19T19:06:56.427Z,11.98
2023-05-19T19:09:22.958Z,11.82
2023-05-19T19:11:49.480Z,12.10
2023-05-19T19:14:16.006Z,12.35
2023-05-19T19:16:43.795Z,11.20
2023-05-19T19:19:10.494Z,11.40
2023-05-19T19:21:37.679Z,12.82
2023-05-19T19:24:04.384Z,10.82
2023-05-19T19:26:31.071Z,12.30
2023-05-19T19:28:57.895Z,11.85
2023-05-19T19:31:26.081Z,11.07
2023-05-19T19:36:19.106Z,11.70
2023-05-19T19:38:45.701Z,11.73
2023-05-19T19:41:12.242Z,11.48
2023-05-19T19:43:38.758Z,12.25
2023-05-19T19:46:07.129Z,11.38
2023-05-19T19:48:33.704Z,12.32
2023-05-19T19:51:00.473Z,13.02
2023-05-19T19:53:27.046Z,12.20
2023-05-19T19:56:00.176Z,12.98
2023-05-19T19:58:26.910Z,11.77
2023-05-19T20:00:57.501Z,11.75
2023-05-19T20:03:24.497Z,12.05
2023-05-19T20:05:51.430Z,12.75
2023-05-19T20:08:19.878Z,12.10
2023-05-19T20:10:48.108Z,12.95
2023-05-19T20:13:15.436Z,13.02
2023-05-19T20:15:42.569Z,11.88
2023-05-19T20:18:09.432Z,11.75
2023-05-19T20:20:36.047Z,13.05
2023-05-19T20:23:02.678Z,12.10
2023-05-19T20:25:29.472Z,12.90
2023-05-19T20:27:56.103Z,12.52
2023-05-19T20:30:22.939Z,12.80
2023-05-19T20:32:49.670Z,12.18
2023-05-19T20:35:16.437Z,12.32
2023-05-19T20:37:43.002Z,11.48
2023-05-19T20:40:09.696Z,11.95
2023-05-19T20:42:37.436Z,11.85
2023-05-19T20:45:04.161Z,11.70
2023-05-19T20:47:30.984Z,11.88
2023-05-19T20:49:58.902Z,13.68
2023-05-19T20:52:25.817Z,13.38
2023-05-19T20:54:52.472Z,12.77
2023-05-19T20:57:19.041Z,12.50
2023-05-19T20:59:45.654Z,11.73
2023-05-19T21:02:12.302Z,11.55
2023-05-19T21:04:39.177Z,11.88
2023-05-19T21:07:05.969Z,11.82
2023-05-19T21:09:32.575Z,12.10
2023-05-19T21:11:59.176Z,10.93
2023-05-19T21:14:26.504Z,10.75
2023-05-19T21:16:56.406Z,8.55
2023-05-19T21:19:23.438Z,11.10
2023-05-19T21:21:50.041Z,10.75
2023-05-19T21:24:16.649Z,9.82
2023-05-19T21:26:43.302Z,10.13
2023-05-19T21:29:10.215Z,11.05
2023-05-19T21:31:36.786Z,9.48
2023-05-19T21:34:03.781Z,10.02
2023-05-19T21:36:30.534Z,10.35
2023-05-19T21:38:57.165Z,9.57
2023-05-19T21:41:23.847Z,9.93
2023-05-19T21:43:50.532Z,9.73
2023-05-19T21:46:17.155Z,9.57
2023-05-19T21:48:43.781Z,9.82
2023-05-19T21:51:13.326Z,9.73
2023-05-19T21:53:39.917Z,10.68
2023-05-19T21:56:06.544Z,9.98
2023-05-19T21:58:33.095Z,9.07
2023-05-19T22:01:00.491Z,9.75
2023-05-19T22:03:27.181Z,9.45
2023-05-19T22:05:54.969Z,9.25
2023-05-19T22:08:22.502Z,9.88
2023-05-19T22:10:51.047Z,9.45
2023-05-19T22:13:18.068Z,9.48
2023-05-19T22:15:45.171Z,9.45
2023-05-19T22:18:11.944Z,9.52
2023-05-19T22:20:38.551Z,10.90
2023-05-19T22:23:05.161Z,8.93
2023-05-19T22:25:31.806Z,9.05
2023-05-19T22:27:59.075Z,8.60
2023-05-19T22:30:25.862Z,9.27
2023-05-19T22:32:52.530Z,9.98
2023-05-19T22:35:19.198Z,9.65
2023-05-19T22:37:45.842Z,10.02
2023-05-19T22:40:12.543Z,10.68
2023-05-19T22:42:39.180Z,9.00
2023-05-19T22:45:06.389Z,9.93
2023-05-19T22:47:32.997Z,9.43
2023-05-19T22:49:59.615Z,9.15
2023-05-19T22:52:26.262Z,8.68
2023-05-19T22:54:52.762Z,9.60
2023-05-19T22:57:19.490Z,9.40
2023-05-19T22:59:46.090Z,9.98
2023-05-19T23:02:12.625Z,10.10
2023-05-19T23:04:39.242Z,10.18
2023-05-19T23:07:05.810Z,10.85
2023-05-19T23:09:32.372Z,10.57
2023-05-19T23:11:58.919Z,11.00
2023-05-19T23:14:26.140Z,12.20
2023-05-19T23:16:52.804Z,12.18
2023-05-19T23:19:20.575Z,10.95
2023-05-19T23:21:49.057Z,11.73
2023-05-19T23:24:16.117Z,12.38
2023-05-19T23:26:44.100Z,11.30
2023-05-19T23:29:11.846Z,11.13
2023-05-19T23:31:38.465Z,11.98
2023-05-19T23:34:05.097Z,12.43
2023-05-19T23:36:31.673Z,12.45
2023-05-19T23:38:59.731Z,12.02
2023-05-19T23:41:26.292Z,12.40
2023-05-19T23:43:52.937Z,12.75
2023-05-19T23:46:19.533Z,13.40
2023-05-19T23:48:46.864Z,13.10
2023-05-19T23:51:13.588Z,12.13
2023-05-19T23:53:40.142Z,12.68
2023-05-19T23:56:06.983Z,13.55
2023-05-19T23:58:33.572Z,13.55
